Weather reports worldwide

Advertisment
Polinya, Spain (8287): temperature & dewpoint: 19.03.2019 18:00:00 - 25.03.2019 18:00:00 (CET)Polinya, Spain (8287): wind speed & gusts: 19.03.2019 18:00:00 - 25.03.2019 18:00:00 (CET)Polinya, Spain (8287): wind direction: 19.03.2019 18:00:00 - 25.03.2019 18:00:00 (CET)
Date & Time tt [°C] td [°C] ff [km/h] ff [kn] fx [km/h] fx [kn] dd
25.03.2019 18:00:00 - - - - - - -
25.03.2019 17:00:00 20,7 3,0 11 6 25 14 E
25.03.2019 16:00:00 21,1 1,9 12 7 23 12 E
25.03.2019 15:00:00 21,6 2,9 10 5 22 12 ESE
25.03.2019 14:00:00 21,5 2,3 12 6 21 11 ENE
25.03.2019 13:00:00 21,7 2,5 9 5 20 11 ENE
25.03.2019 12:00:00 21,9 2,5 7 4 14 8 ENE
25.03.2019 11:00:00 20,6 1,9 1 1 12 6 WNW
25.03.2019 10:00:00 17,4 1,7 8 4 15 8 SW
25.03.2019 09:00:00 13,6 1,3 5 3 17 9 SW
25.03.2019 08:00:00 12,1 0,0 6 4 18 10 WSW
25.03.2019 07:00:00 10,2 -0,3 6 3 16 9 SW
25.03.2019 06:00:00 9,6 -0,3 3 2 13 7 WSW
25.03.2019 05:00:00 9,6 0,0 6 3 14 8 WSW
25.03.2019 04:00:00 9,3 0,6 3 2 10 6 WSW
25.03.2019 03:00:00 7,7 0,6 2 1 9 5 W
25.03.2019 02:00:00 10,1 0,9 4 2 13 7 SW
25.03.2019 01:00:00 11,1 2,1 6 4 12 6 SW
25.03.2019 00:00:00 9,0 3,0 7 4 11 6 SW
24.03.2019 23:00:00 9,2 3,6 4 2 6 3 SSW
24.03.2019 22:00:00 10,3 3,8 1 1 4 2 SSW
24.03.2019 21:00:00 11,8 4,3 4 2 5 3 ENE
24.03.2019 20:00:00 14,1 2,9 1 0 7 4 E
24.03.2019 19:00:00 17,4 3,2 5 3 14 7 E
24.03.2019 18:00:00 19,2 3,4 8 4 16 9 E
24.03.2019 17:00:00 21,0 2,7 8 4 19 10 E
24.03.2019 16:00:00 21,7 3,4 9 5 22 12 E
24.03.2019 15:00:00 21,0 3,2 8 4 21 12 ESE
24.03.2019 14:00:00 22,4 4,5 8 4 21 11 ENE
24.03.2019 13:00:00 22,2 5,1 5 3 18 10 E
24.03.2019 12:00:00 20,6 5,0 4 2 14 8 SSW
24.03.2019 11:00:00 18,9 5,0 1 1 18 10 WSW
24.03.2019 10:00:00 16,2 4,8 10 5 22 12 SW
24.03.2019 09:00:00 13,2 4,3 11 6 21 11 SW
24.03.2019 08:00:00 11,3 4,3 8 5 19 11 WSW
24.03.2019 07:00:00 9,3 3,8 7 4 17 9 SW
24.03.2019 06:00:00 10,2 4,3 9 5 16 8 SW
24.03.2019 05:00:00 10,1 4,5 7 4 16 9 SW
24.03.2019 04:00:00 9,4 4,1 8 4 14 8 WSW
24.03.2019 03:00:00 9,3 5,0 3 2 8 4 WSW
24.03.2019 02:00:00 7,9 4,3 4 2 9 5 SW
24.03.2019 01:00:00 8,3 4,1 2 1 12 7 W
24.03.2019 00:00:00 10,9 5,6 6 3 14 7 SW
23.03.2019 23:00:00 9,7 5,6 4 2 5 3 SSW
23.03.2019 22:00:00 9,6 5,1 1 1 6 3 WNW
23.03.2019 21:00:00 11,5 6,4 1 0 3 2 SE
23.03.2019 20:00:00 12,9 5,6 2 1 8 5 N
23.03.2019 19:00:00 15,0 4,6 4 2 14 7 E
23.03.2019 18:00:00 16,4 4,1 8 4 18 10 E
23.03.2019 17:00:00 17,9 4,8 9 5 20 11 ENE
23.03.2019 16:00:00 18,4 4,1 10 5 22 12 NE
23.03.2019 15:00:00 18,4 3,4 12 6 19 11 NE
23.03.2019 14:00:00 19,3 4,3 10 5 19 10 ENE
23.03.2019 13:00:00 18,3 3,4 5 3 16 9 NNE
23.03.2019 12:00:00 17,0 2,9 3 2 12 7 N
23.03.2019 11:00:00 16,1 4,8 1 1 11 6 WSW
23.03.2019 10:00:00 13,1 4,8 6 3 11 6 SW
23.03.2019 09:00:00 11,1 3,6 6 3 11 6 SW
23.03.2019 08:00:00 10,8 3,6 4 2 9 5 SW
23.03.2019 07:00:00 10,2 3,2 7 4 13 7 SW
23.03.2019 06:00:00 10,6 3,8 5 3 10 5 SW
23.03.2019 05:00:00 10,3 3,4 6 3 13 7 SW
23.03.2019 04:00:00 9,8 2,9 8 4 13 7 SW
23.03.2019 03:00:00 9,7 3,2 5 3 10 5 SW
23.03.2019 02:00:00 8,6 3,9 1 1 5 3 WNW
23.03.2019 01:00:00 7,5 2,3 1 0 8 4 SW
23.03.2019 00:00:00 9,1 2,7 2 1 10 5 SSW
22.03.2019 23:00:00 11,4 3,2 5 3 11 6 SW
22.03.2019 22:00:00 11,5 3,6 6 4 13 7 SW
22.03.2019 21:00:00 11,1 3,6 1 0 7 4 SW
22.03.2019 20:00:00 11,8 2,9 2 1 5 3 NNW
22.03.2019 19:00:00 14,4 2,3 3 2 12 6 NNE
22.03.2019 18:00:00 15,6 2,1 7 4 19 10 ENE
22.03.2019 17:00:00 16,7 1,9 11 6 23 13 ENE
22.03.2019 16:00:00 17,4 2,5 10 6 24 13 ENE
22.03.2019 15:00:00 17,5 2,7 13 7 26 14 NE
22.03.2019 14:00:00 17,2 2,7 14 8 29 16 NE
22.03.2019 13:00:00 16,6 1,1 14 8 26 14 NE
22.03.2019 12:00:00 16,6 -0,3 13 7 28 15 NNE
22.03.2019 11:00:00 14,9 1,1 1 1 14 8 W
22.03.2019 10:00:00 11,9 2,9 11 6 19 10 SW
22.03.2019 09:00:00 9,9 3,4 8 4 17 9 SW
22.03.2019 08:00:00 8,9 3,0 10 5 16 9 SW
22.03.2019 07:00:00 8,1 3,4 6 4 17 9 SW
22.03.2019 06:00:00 7,5 2,9 8 4 14 8 WSW
22.03.2019 05:00:00 7,2 2,5 3 2 11 6 WSW
22.03.2019 04:00:00 7,1 2,5 6 4 13 7 SW
22.03.2019 03:00:00 8,0 3,2 10 5 15 8 SW
22.03.2019 02:00:00 7,6 3,2 5 3 11 6 SW
22.03.2019 01:00:00 6,6 2,7 1 0 6 3 NW
22.03.2019 00:00:00 7,2 3,0 3 1 5 3 SSW
21.03.2019 23:00:00 7,3 2,7 1 1 4 2 SW
21.03.2019 22:00:00 8,8 3,0 0 0 6 3 N
21.03.2019 21:00:00 10,1 2,9 4 2 7 4 NNE
21.03.2019 20:00:00 10,6 2,7 5 3 10 5 NE
21.03.2019 19:00:00 12,7 1,9 7 4 24 13 NE
21.03.2019 18:00:00 13,8 0,9 11 6 26 14 ENE
21.03.2019 17:00:00 14,7 1,3 15 8 31 17 NE
21.03.2019 16:00:00 15,4 0,4 16 9 32 17 ENE
21.03.2019 15:00:00 15,9 2,3 15 8 31 17 ENE
21.03.2019 14:00:00 15,4 1,9 18 10 33 18 NE
21.03.2019 13:00:00 15,8 1,5 16 9 32 18 NE
21.03.2019 12:00:00 15,7 0,2 12 6 29 16 NE
21.03.2019 11:00:00 14,3 1,3 10 6 24 13 NE
21.03.2019 10:00:00 12,7 1,9 2 1 13 7 NNW
21.03.2019 09:00:00 9,4 3,2 6 4 14 7 SW
21.03.2019 08:00:00 5,6 2,1 3 2 10 5 WSW
21.03.2019 07:00:00 4,6 0,6 2 1 11 6 SW
21.03.2019 06:00:00 6,8 2,3 6 3 12 7 SW
21.03.2019 05:00:00 6,7 2,5 8 4 14 8 SW
21.03.2019 04:00:00 7,4 2,9 7 4 14 7 SW
21.03.2019 03:00:00 7,4 2,9 9 5 16 9 SW
21.03.2019 02:00:00 7,5 3,2 9 5 16 8 SW
21.03.2019 01:00:00 7,2 3,2 7 4 13 7 SW
21.03.2019 00:00:00 7,4 3,4 8 4 10 6 SW
20.03.2019 23:00:00 5,8 1,9 0 0 2 1 SSW
20.03.2019 22:00:00 7,1 2,7 1 1 4 2 SSW
20.03.2019 21:00:00 8,5 2,7 1 1 6 4 ESE
20.03.2019 20:00:00 9,7 1,9 5 3 8 4 ENE
20.03.2019 19:00:00 11,9 1,3 6 3 16 9 E
20.03.2019 18:00:00 13,4 1,5 9 5 19 10 E
20.03.2019 17:00:00 14,5 2,1 8 5 21 11 E
20.03.2019 16:00:00 14,9 2,5 8 5 27 14 E
20.03.2019 15:00:00 14,8 2,7 10 5 24 13 ESE
20.03.2019 14:00:00 14,6 2,1 11 6 27 15 E
20.03.2019 13:00:00 14,5 2,5 7 4 18 10 ENE
20.03.2019 12:00:00 13,9 3,0 6 3 18 10 E
20.03.2019 11:00:00 12,5 3,8 6 3 11 6 E
20.03.2019 10:00:00 11,1 4,5 1 1 13 7 WSW
20.03.2019 09:00:00 9,4 6,5 8 5 12 7 SW
20.03.2019 08:00:00 8,6 6,1 5 3 10 5 SW
20.03.2019 07:00:00 8,2 5,6 5 3 10 5 SW
20.03.2019 06:00:00 8,6 5,8 5 3 11 6 SW
20.03.2019 05:00:00 8,6 5,5 8 4 20 11 ENE
20.03.2019 04:00:00 8,8 5,8 1 1 8 4 WSW
20.03.2019 03:00:00 9,0 5,9 1 0 14 8 SSE
20.03.2019 02:00:00 9,5 6,2 2 1 13 7 N
20.03.2019 01:00:00 10,3 6,7 0 0 2 1 WNW
20.03.2019 00:00:00 10,5 5,3 0 0 0 0 N
19.03.2019 23:00:00 10,7 3,9 0 0 0 0 N
19.03.2019 22:00:00 11,0 3,9 0 0 0 0 N
19.03.2019 21:00:00 11,6 4,1 0 0 0 0 N
19.03.2019 20:00:00 12,1 4,1 0 0 11 6 N
19.03.2019 19:00:00 12,6 2,5 6 3 18 10 E
19.03.2019 18:00:00 13,7 0,4 8 4 26 14 E

tt = temperature
td = dewpoint
ff = wind speed
fx = gusts
dd = wind direction

Next stations